sensor_id;sensor_type;location;lat;lon;timestamp;P1;durP1;ratioP1;P2;durP2;ratioP2
51810;SDS011;52468;40.116;18.296;2023-02-01T00:01:13;3.27;;;1.13;;
51810;SDS011;52468;40.116;18.296;2023-02-01T00:03:41;2.00;;;1.50;;
51810;SDS011;52468;40.116;18.296;2023-02-01T00:06:09;7.00;;;1.70;;
51810;SDS011;52468;40.116;18.296;2023-02-01T00:08:37;5.60;;;2.60;;
51810;SDS011;52468;40.116;18.296;2023-02-01T00:11:09;5.53;;;2.53;;
51810;SDS011;52468;40.116;18.296;2023-02-01T00:13:39;5.25;;;2.17;;
51810;SDS011;52468;40.116;18.296;2023-02-01T00:16:09;3.50;;;1.97;;
51810;SDS011;52468;40.116;18.296;2023-02-01T00:18:45;2.70;;;1.30;;
51810;SDS011;52468;40.116;18.296;2023-02-01T00:21:14;8.90;;;2.53;;
51810;SDS011;52468;40.116;18.296;2023-02-01T00:23:44;2.67;;;2.20;;
51810;SDS011;52468;40.116;18.296;2023-02-01T00:26:14;3.00;;;1.93;;
51810;SDS011;52468;40.116;18.296;2023-02-01T00:28:44;3.57;;;1.40;;
51810;SDS011;52468;40.116;18.296;2023-02-01T00:31:12;3.70;;;1.40;;
51810;SDS011;52468;40.116;18.296;2023-02-01T00:33:42;3.43;;;1.13;;
51810;SDS011;52468;40.116;18.296;2023-02-01T00:36:09;5.30;;;1.80;;
51810;SDS011;52468;40.116;18.296;2023-02-01T00:38:38;3.30;;;1.73;;
51810;SDS011;52468;40.116;18.296;2023-02-01T00:41:07;5.77;;;1.47;;
51810;SDS011;52468;40.116;18.296;2023-02-01T00:43:38;2.33;;;1.30;;
51810;SDS011;52468;40.116;18.296;2023-02-01T00:46:06;1.43;;;1.33;;
51810;SDS011;52468;40.116;18.296;2023-02-01T00:48:34;2.73;;;2.20;;
51810;SDS011;52468;40.116;18.296;2023-02-01T00:51:04;2.23;;;0.70;;
51810;SDS011;52468;40.116;18.296;2023-02-01T00:53:34;2.67;;;1.50;;
51810;SDS011;52468;40.116;18.296;2023-02-01T00:56:03;2.73;;;1.50;;
51810;SDS011;52468;40.116;18.296;2023-02-01T00:58:32;2.33;;;1.27;;
51810;SDS011;52468;40.116;18.296;2023-02-01T01:03:31;2.23;;;1.60;;
51810;SDS011;52468;40.116;18.296;2023-02-01T01:06:01;3.00;;;1.50;;
51810;SDS011;52468;40.116;18.296;2023-02-01T01:08:31;2.53;;;1.60;;
51810;SDS011;52468;40.116;18.296;2023-02-01T01:11:04;5.73;;;1.23;;
51810;SDS011;52468;40.116;18.296;2023-02-01T01:13:36;5.03;;;1.07;;
51810;SDS011;52468;40.116;18.296;2023-02-01T01:16:05;1.30;;;1.20;;
51810;SDS011;52468;40.116;18.296;2023-02-01T01:18:34;1.00;;;0.90;;
51810;SDS011;52468;40.116;18.296;2023-02-01T01:21:04;1.93;;;1.53;;
51810;SDS011;52468;40.116;18.296;2023-02-01T01:23:33;1.83;;;1.13;;
51810;SDS011;52468;40.116;18.296;2023-02-01T01:26:06;1.23;;;0.90;;
51810;SDS011;52468;40.116;18.296;2023-02-01T01:28:35;0.68;;;0.68;;
51810;SDS011;52468;40.116;18.296;2023-02-01T01:31:03;1.87;;;1.37;;
51810;SDS011;52468;40.116;18.296;2023-02-01T01:33:31;1.47;;;1.00;;
51810;SDS011;52468;40.116;18.296;2023-02-01T01:35:59;1.40;;;1.03;;
51810;SDS011;52468;40.116;18.296;2023-02-01T01:38:27;1.77;;;1.07;;
51810;SDS011;52468;40.116;18.296;2023-02-01T01:40:54;1.83;;;1.13;;
51810;SDS011;52468;40.116;18.296;2023-02-01T01:43:23;3.60;;;1.20;;
51810;SDS011;52468;40.116;18.296;2023-02-01T01:45:53;1.50;;;0.97;;
51810;SDS011;52468;40.116;18.296;2023-02-01T01:51:06;1.20;;;0.80;;
51810;SDS011;52468;40.116;18.296;2023-02-01T01:53:38;0.50;;;0.50;;
51810;SDS011;52468;40.116;18.296;2023-02-01T01:56:17;0.60;;;0.60;;
51810;SDS011;52468;40.116;18.296;2023-02-01T01:58:44;0.83;;;0.70;;
51810;SDS011;52468;40.116;18.296;2023-02-01T02:01:12;3.17;;;2.00;;
51810;SDS011;52468;40.116;18.296;2023-02-01T02:03:41;1.10;;;0.90;;
51810;SDS011;52468;40.116;18.296;2023-02-01T02:06:14;1.97;;;0.70;;
51810;SDS011;52468;40.116;18.296;2023-02-01T02:09:03;1.73;;;1.00;;
51810;SDS011;52468;40.116;18.296;2023-02-01T02:11:33;0.67;;;0.67;;
51810;SDS011;52468;40.116;18.296;2023-02-01T02:14:01;1.70;;;0.93;;
51810;SDS011;52468;40.116;18.296;2023-02-01T02:27:28;1.63;;;0.63;;
51810;SDS011;52468;40.116;18.296;2023-02-01T02:35:50;2.37;;;1.00;;
51810;SDS011;52468;40.116;18.296;2023-02-01T02:41:09;1.80;;;1.20;;
51810;SDS011;52468;40.116;18.296;2023-02-01T02:44:02;2.63;;;1.03;;
51810;SDS011;52468;40.116;18.296;2023-02-01T02:47:00;1.07;;;0.80;;
51810;SDS011;52468;40.116;18.296;2023-02-01T02:53:05;3.07;;;0.73;;
51810;SDS011;52468;40.116;18.296;2023-02-01T02:55:55;3.70;;;1.20;;
51810;SDS011;52468;40.116;18.296;2023-02-01T02:58:43;5.53;;;0.97;;
51810;SDS011;52468;40.116;18.296;2023-02-01T03:01:31;1.73;;;1.10;;
51810;SDS011;52468;40.116;18.296;2023-02-01T03:04:18;1.93;;;1.23;;
51810;SDS011;52468;40.116;18.296;2023-02-01T03:06:49;1.60;;;1.00;;
51810;SDS011;52468;40.116;18.296;2023-02-01T03:09:27;2.57;;;1.40;;
51810;SDS011;52468;40.116;18.296;2023-02-01T03:12:01;5.97;;;0.87;;
51810;SDS011;52468;40.116;18.296;2023-02-01T03:14:52;2.87;;;0.90;;
51810;SDS011;52468;40.116;18.296;2023-02-01T03:17:26;1.30;;;1.02;;
51810;SDS011;52468;40.116;18.296;2023-02-01T03:20:00;1.57;;;0.90;;
51810;SDS011;52468;40.116;18.296;2023-02-01T03:22:30;0.70;;;0.70;;
51810;SDS011;52468;40.116;18.296;2023-02-01T03:25:22;2.10;;;1.23;;
51810;SDS011;52468;40.116;18.296;2023-02-01T03:27:53;1.77;;;0.73;;
51810;SDS011;52468;40.116;18.296;2023-02-01T03:30:34;1.13;;;1.03;;
51810;SDS011;52468;40.116;18.296;2023-02-01T03:33:05;0.93;;;0.77;;
51810;SDS011;52468;40.116;18.296;2023-02-01T03:43:30;1.23;;;0.90;;
51810;SDS011;52468;40.116;18.296;2023-02-01T03:46:07;1.03;;;0.73;;
51810;SDS011;52468;40.116;18.296;2023-02-01T03:48:39;2.30;;;0.97;;
51810;SDS011;52468;40.116;18.296;2023-02-01T03:51:08;2.87;;;1.20;;
51810;SDS011;52468;40.116;18.296;2023-02-01T03:53:38;1.67;;;1.10;;
51810;SDS011;52468;40.116;18.296;2023-02-01T03:56:08;2.13;;;1.70;;
51810;SDS011;52468;40.116;18.296;2023-02-01T03:58:39;2.40;;;1.63;;
51810;SDS011;52468;40.116;18.296;2023-02-01T04:01:07;1.63;;;1.00;;
51810;SDS011;52468;40.116;18.296;2023-02-01T04:03:37;2.23;;;1.37;;
51810;SDS011;52468;40.116;18.296;2023-02-01T04:06:05;1.47;;;1.17;;
51810;SDS011;52468;40.116;18.296;2023-02-01T04:08:33;1.60;;;0.87;;
51810;SDS011;52468;40.116;18.296;2023-02-01T04:11:01;1.83;;;1.00;;
51810;SDS011;52468;40.116;18.296;2023-02-01T04:13:29;2.20;;;1.00;;
51810;SDS011;52468;40.116;18.296;2023-02-01T04:15:57;1.30;;;1.00;;
51810;SDS011;52468;40.116;18.296;2023-02-01T04:18:25;1.93;;;0.93;;
51810;SDS011;52468;40.116;18.296;2023-02-01T04:20:53;3.27;;;1.43;;
51810;SDS011;52468;40.116;18.296;2023-02-01T04:23:20;2.07;;;1.33;;
51810;SDS011;52468;40.116;18.296;2023-02-01T04:25:48;2.23;;;1.03;;
51810;SDS011;52468;40.116;18.296;2023-02-01T04:28:17;2.23;;;0.70;;
51810;SDS011;52468;40.116;18.296;2023-02-01T04:30:45;4.07;;;1.17;;
51810;SDS011;52468;40.116;18.296;2023-02-01T04:33:13;1.27;;;1.10;;
51810;SDS011;52468;40.116;18.296;2023-02-01T04:35:41;4.10;;;1.40;;
51810;SDS011;52468;40.116;18.296;2023-02-01T04:38:09;2.37;;;0.90;;
51810;SDS011;52468;40.116;18.296;2023-02-01T04:40:36;0.97;;;0.87;;
51810;SDS011;52468;40.116;18.296;2023-02-01T04:43:04;0.87;;;0.87;;
51810;SDS011;52468;40.116;18.296;2023-02-01T04:45:33;1.90;;;1.00;;
51810;SDS011;52468;40.116;18.296;2023-02-01T04:48:00;1.13;;;0.80;;
51810;SDS011;52468;40.116;18.296;2023-02-01T04:50:28;2.13;;;1.60;;
51810;SDS011;52468;40.116;18.296;2023-02-01T04:52:56;1.43;;;1.03;;
51810;SDS011;52468;40.116;18.296;2023-02-01T04:55:24;2.30;;;1.03;;
51810;SDS011;52468;40.116;18.296;2023-02-01T04:57:52;2.27;;;1.10;;
51810;SDS011;52468;40.116;18.296;2023-02-01T05:00:19;1.33;;;0.80;;
51810;SDS011;52468;40.116;18.296;2023-02-01T05:02:48;2.80;;;1.47;;
51810;SDS011;52468;40.116;18.296;2023-02-01T05:05:16;1.70;;;1.47;;
51810;SDS011;52468;40.116;18.296;2023-02-01T05:07:43;1.73;;;1.63;;
51810;SDS011;52468;40.116;18.296;2023-02-01T05:10:13;1.40;;;1.20;;
51810;SDS011;52468;40.116;18.296;2023-02-01T05:12:42;3.47;;;1.70;;
51810;SDS011;52468;40.116;18.296;2023-02-01T05:15:30;1.10;;;0.90;;
51810;SDS011;52468;40.116;18.296;2023-02-01T05:17:58;2.67;;;1.30;;
51810;SDS011;52468;40.116;18.296;2023-02-01T05:20:26;10.00;;;1.10;;
51810;SDS011;52468;40.116;18.296;2023-02-01T05:22:53;2.50;;;1.10;;
51810;SDS011;52468;40.116;18.296;2023-02-01T05:25:21;2.33;;;1.20;;
51810;SDS011;52468;40.116;18.296;2023-02-01T05:27:49;1.10;;;1.00;;
51810;SDS011;52468;40.116;18.296;2023-02-01T05:30:17;5.00;;;1.47;;
51810;SDS011;52468;40.116;18.296;2023-02-01T05:32:45;0.80;;;0.80;;
51810;SDS011;52468;40.116;18.296;2023-02-01T05:35:17;2.13;;;1.47;;
51810;SDS011;52468;40.116;18.296;2023-02-01T05:37:45;3.40;;;1.07;;
51810;SDS011;52468;40.116;18.296;2023-02-01T05:40:12;3.03;;;1.30;;
51810;SDS011;52468;40.116;18.296;2023-02-01T05:42:40;2.73;;;1.50;;
51810;SDS011;52468;40.116;18.296;2023-02-01T05:45:08;3.53;;;1.70;;
51810;SDS011;52468;40.116;18.296;2023-02-01T05:47:36;5.43;;;2.33;;
51810;SDS011;52468;40.116;18.296;2023-02-01T05:50:04;1.67;;;1.30;;
51810;SDS011;52468;40.116;18.296;2023-02-01T05:52:33;2.60;;;1.63;;
51810;SDS011;52468;40.116;18.296;2023-02-01T05:55:00;3.07;;;1.90;;
51810;SDS011;52468;40.116;18.296;2023-02-01T05:57:28;4.13;;;1.70;;
51810;SDS011;52468;40.116;18.296;2023-02-01T05:59:57;3.67;;;2.23;;
51810;SDS011;52468;40.116;18.296;2023-02-01T06:02:26;3.70;;;1.77;;
51810;SDS011;52468;40.116;18.296;2023-02-01T06:04:54;3.27;;;1.70;;
51810;SDS011;52468;40.116;18.296;2023-02-01T06:07:21;5.17;;;1.77;;
51810;SDS011;52468;40.116;18.296;2023-02-01T06:09:52;3.25;;;1.63;;
51810;SDS011;52468;40.116;18.296;2023-02-01T06:12:19;2.50;;;1.50;;
51810;SDS011;52468;40.116;18.296;2023-02-01T06:14:47;2.43;;;1.63;;
51810;SDS011;52468;40.116;18.296;2023-02-01T06:17:15;6.40;;;3.10;;
51810;SDS011;52468;40.116;18.296;2023-02-01T06:19:43;3.72;;;1.90;;
51810;SDS011;52468;40.116;18.296;2023-02-01T06:22:12;3.40;;;1.60;;
51810;SDS011;52468;40.116;18.296;2023-02-01T06:24:39;3.17;;;2.87;;
51810;SDS011;52468;40.116;18.296;2023-02-01T06:27:08;6.33;;;3.00;;
51810;SDS011;52468;40.116;18.296;2023-02-01T06:29:36;2.77;;;1.60;;
51810;SDS011;52468;40.116;18.296;2023-02-01T06:32:04;2.03;;;1.50;;
51810;SDS011;52468;40.116;18.296;2023-02-01T06:34:32;3.70;;;1.73;;
51810;SDS011;52468;40.116;18.296;2023-02-01T06:37:00;5.53;;;1.93;;
51810;SDS011;52468;40.116;18.296;2023-02-01T06:39:28;5.20;;;2.60;;
51810;SDS011;52468;40.116;18.296;2023-02-01T06:41:55;5.47;;;3.00;;
51810;SDS011;52468;40.116;18.296;2023-02-01T06:44:23;5.83;;;2.77;;
51810;SDS011;52468;40.116;18.296;2023-02-01T06:46:51;4.00;;;2.90;;
51810;SDS011;52468;40.116;18.296;2023-02-01T06:49:19;3.30;;;2.50;;
51810;SDS011;52468;40.116;18.296;2023-02-01T06:51:47;7.73;;;2.70;;
51810;SDS011;52468;40.116;18.296;2023-02-01T06:54:15;3.13;;;2.83;;
51810;SDS011;52468;40.116;18.296;2023-02-01T06:56:43;6.10;;;3.10;;
51810;SDS011;52468;40.116;18.296;2023-02-01T06:59:10;5.73;;;2.83;;
51810;SDS011;52468;40.116;18.296;2023-02-01T07:01:39;5.43;;;2.43;;
51810;SDS011;52468;40.116;18.296;2023-02-01T07:04:08;13.23;;;2.87;;
51810;SDS011;52468;40.116;18.296;2023-02-01T07:06:37;4.23;;;2.43;;
51810;SDS011;52468;40.116;18.296;2023-02-01T07:09:06;6.37;;;2.53;;
51810;SDS011;52468;40.116;18.296;2023-02-01T07:11:35;5.57;;;3.00;;
51810;SDS011;52468;40.116;18.296;2023-02-01T07:14:04;4.50;;;2.40;;
51810;SDS011;52468;40.116;18.296;2023-02-01T07:16:32;3.47;;;2.70;;
51810;SDS011;52468;40.116;18.296;2023-02-01T07:19:00;3.43;;;2.50;;
51810;SDS011;52468;40.116;18.296;2023-02-01T07:21:28;8.07;;;3.33;;
51810;SDS011;52468;40.116;18.296;2023-02-01T07:23:56;3.87;;;1.90;;
51810;SDS011;52468;40.116;18.296;2023-02-01T07:26:25;5.00;;;2.70;;
51810;SDS011;52468;40.116;18.296;2023-02-01T07:28:53;8.20;;;3.00;;
51810;SDS011;52468;40.116;18.296;2023-02-01T07:31:20;8.20;;;3.07;;
51810;SDS011;52468;40.116;18.296;2023-02-01T07:33:49;4.27;;;2.93;;
51810;SDS011;52468;40.116;18.296;2023-02-01T07:36:19;4.40;;;2.93;;
51810;SDS011;52468;40.116;18.296;2023-02-01T07:38:47;9.37;;;3.77;;
51810;SDS011;52468;40.116;18.296;2023-02-01T07:41:16;5.70;;;2.90;;
51810;SDS011;52468;40.116;18.296;2023-02-01T07:43:44;5.30;;;3.27;;
51810;SDS011;52468;40.116;18.296;2023-02-01T07:46:12;6.60;;;3.17;;
51810;SDS011;52468;40.116;18.296;2023-02-01T07:48:42;7.70;;;3.10;;
51810;SDS011;52468;40.116;18.296;2023-02-01T07:51:11;3.77;;;2.40;;
51810;SDS011;52468;40.116;18.296;2023-02-01T07:53:41;4.67;;;2.87;;
51810;SDS011;52468;40.116;18.296;2023-02-01T07:56:11;6.23;;;2.93;;
51810;SDS011;52468;40.116;18.296;2023-02-01T07:58:47;4.95;;;2.60;;
51810;SDS011;52468;40.116;18.296;2023-02-01T08:01:19;7.63;;;4.20;;
51810;SDS011;52468;40.116;18.296;2023-02-01T08:03:58;5.70;;;2.80;;
51810;SDS011;52468;40.116;18.296;2023-02-01T08:06:31;5.13;;;3.20;;
51810;SDS011;52468;40.116;18.296;2023-02-01T08:09:00;5.13;;;2.97;;
51810;SDS011;52468;40.116;18.296;2023-02-01T08:11:29;5.80;;;2.07;;
51810;SDS011;52468;40.116;18.296;2023-02-01T08:13:57;4.77;;;2.07;;
51810;SDS011;52468;40.116;18.296;2023-02-01T08:16:25;4.23;;;2.60;;
51810;SDS011;52468;40.116;18.296;2023-02-01T08:18:54;3.53;;;2.53;;
51810;SDS011;52468;40.116;18.296;2023-02-01T08:21:23;6.00;;;3.87;;
51810;SDS011;52468;40.116;18.296;2023-02-01T08:23:52;1.57;;;1.47;;
51810;SDS011;52468;40.116;18.296;2023-02-01T08:26:22;3.80;;;2.63;;
51810;SDS011;52468;40.116;18.296;2023-02-01T08:28:54;7.17;;;3.63;;
51810;SDS011;52468;40.116;18.296;2023-02-01T08:31:24;5.57;;;2.50;;
51810;SDS011;52468;40.116;18.296;2023-02-01T08:33:55;4.17;;;2.17;;
51810;SDS011;52468;40.116;18.296;2023-02-01T08:36:25;7.80;;;2.03;;
51810;SDS011;52468;40.116;18.296;2023-02-01T08:38:54;5.87;;;2.67;;
51810;SDS011;52468;40.116;18.296;2023-02-01T08:41:25;5.50;;;2.80;;
51810;SDS011;52468;40.116;18.296;2023-02-01T08:43:55;3.50;;;2.03;;
51810;SDS011;52468;40.116;18.296;2023-02-01T08:46:23;6.67;;;2.43;;
51810;SDS011;52468;40.116;18.296;2023-02-01T08:48:52;5.70;;;2.67;;
51810;SDS011;52468;40.116;18.296;2023-02-01T08:51:21;4.13;;;2.40;;
51810;SDS011;52468;40.116;18.296;2023-02-01T08:53:50;3.47;;;2.17;;
51810;SDS011;52468;40.116;18.296;2023-02-01T08:56:18;6.43;;;2.90;;
51810;SDS011;52468;40.116;18.296;2023-02-01T08:58:46;2.60;;;1.93;;
51810;SDS011;52468;40.116;18.296;2023-02-01T09:01:15;2.80;;;1.43;;
51810;SDS011;52468;40.116;18.296;2023-02-01T09:03:44;2.10;;;1.63;;
51810;SDS011;52468;40.116;18.296;2023-02-01T09:06:13;4.53;;;1.10;;
51810;SDS011;52468;40.116;18.296;2023-02-01T09:08:42;3.43;;;2.53;;
51810;SDS011;52468;40.116;18.296;2023-02-01T09:11:11;7.37;;;2.03;;
51810;SDS011;52468;40.116;18.296;2023-02-01T09:13:41;5.73;;;1.50;;
51810;SDS011;52468;40.116;18.296;2023-02-01T09:16:09;4.33;;;1.97;;
51810;SDS011;52468;40.116;18.296;2023-02-01T09:18:38;2.37;;;1.40;;
51810;SDS011;52468;40.116;18.296;2023-02-01T09:21:07;3.77;;;1.60;;
51810;SDS011;52468;40.116;18.296;2023-02-01T09:23:35;2.90;;;1.40;;
51810;SDS011;52468;40.116;18.296;2023-02-01T09:26:04;4.70;;;3.00;;
51810;SDS011;52468;40.116;18.296;2023-02-01T09:28:32;5.07;;;1.93;;
51810;SDS011;52468;40.116;18.296;2023-02-01T09:31:00;1.60;;;1.50;;
51810;SDS011;52468;40.116;18.296;2023-02-01T09:33:28;3.37;;;2.63;;
51810;SDS011;52468;40.116;18.296;2023-02-01T09:35:57;2.83;;;1.37;;
51810;SDS011;52468;40.116;18.296;2023-02-01T09:38:26;4.13;;;1.83;;
51810;SDS011;52468;40.116;18.296;2023-02-01T09:40:55;5.90;;;2.13;;
51810;SDS011;52468;40.116;18.296;2023-02-01T09:48:41;2.00;;;1.57;;
51810;SDS011;52468;40.116;18.296;2023-02-01T09:51:33;1.60;;;1.37;;
51810;SDS011;52468;40.116;18.296;2023-02-01T09:54:13;2.83;;;1.70;;
51810;SDS011;52468;40.116;18.296;2023-02-01T09:59:31;5.40;;;1.60;;
51810;SDS011;52468;40.116;18.296;2023-02-01T10:02:01;4.13;;;1.50;;
51810;SDS011;52468;40.116;18.296;2023-02-01T10:04:30;3.57;;;1.60;;
51810;SDS011;52468;40.116;18.296;2023-02-01T10:10:15;2.60;;;1.90;;
51810;SDS011;52468;40.116;18.296;2023-02-01T10:27:14;2.73;;;1.53;;
51810;SDS011;52468;40.116;18.296;2023-02-01T10:29:47;3.23;;;1.83;;
51810;SDS011;52468;40.116;18.296;2023-02-01T10:32:23;3.87;;;1.87;;
51810;SDS011;52468;40.116;18.296;2023-02-01T10:34:59;2.77;;;1.27;;
51810;SDS011;52468;40.116;18.296;2023-02-01T10:37:35;2.73;;;1.20;;
51810;SDS011;52468;40.116;18.296;2023-02-01T10:42:57;2.50;;;1.53;;
51810;SDS011;52468;40.116;18.296;2023-02-01T10:45:28;5.43;;;1.97;;
51810;SDS011;52468;40.116;18.296;2023-02-01T10:47:59;4.27;;;2.17;;
51810;SDS011;52468;40.116;18.296;2023-02-01T10:56:21;2.37;;;1.63;;
51810;SDS011;52468;40.116;18.296;2023-02-01T10:59:01;2.63;;;1.73;;
51810;SDS011;52468;40.116;18.296;2023-02-01T11:04:02;2.47;;;1.50;;
51810;SDS011;52468;40.116;18.296;2023-02-01T11:14:19;4.70;;;2.70;;
51810;SDS011;52468;40.116;18.296;2023-02-01T11:16:57;2.97;;;2.20;;
51810;SDS011;52468;40.116;18.296;2023-02-01T11:19:27;3.13;;;1.87;;
51810;SDS011;52468;40.116;18.296;2023-02-01T11:21:58;5.57;;;1.90;;
51810;SDS011;52468;40.116;18.296;2023-02-01T11:24:29;3.10;;;1.95;;
51810;SDS011;52468;40.116;18.296;2023-02-01T11:27:01;3.00;;;1.90;;
51810;SDS011;52468;40.116;18.296;2023-02-01T11:29:40;2.37;;;1.83;;
51810;SDS011;52468;40.116;18.296;2023-02-01T11:32:12;4.73;;;1.87;;
51810;SDS011;52468;40.116;18.296;2023-02-01T11:34:55;3.40;;;2.03;;
51810;SDS011;52468;40.116;18.296;2023-02-01T11:37:27;3.07;;;1.80;;
51810;SDS011;52468;40.116;18.296;2023-02-01T11:40:09;4.63;;;3.20;;
51810;SDS011;52468;40.116;18.296;2023-02-01T11:43:00;6.83;;;4.17;;
51810;SDS011;52468;40.116;18.296;2023-02-01T11:45:35;4.57;;;2.20;;
51810;SDS011;52468;40.116;18.296;2023-02-01T11:48:08;1.80;;;1.63;;
51810;SDS011;52468;40.116;18.296;2023-02-01T12:04:42;3.63;;;1.53;;
51810;SDS011;52468;40.116;18.296;2023-02-01T12:21:57;5.93;;;2.83;;
51810;SDS011;52468;40.116;18.296;2023-02-01T12:41:25;2.43;;;1.93;;
51810;SDS011;52468;40.116;18.296;2023-02-01T12:44:11;5.87;;;2.30;;
51810;SDS011;52468;40.116;18.296;2023-02-01T12:52:23;4.00;;;2.37;;
51810;SDS011;52468;40.116;18.296;2023-02-01T12:57:42;3.23;;;2.07;;
51810;SDS011;52468;40.116;18.296;2023-02-01T13:00:27;2.00;;;1.23;;
51810;SDS011;52468;40.116;18.296;2023-02-01T13:03:24;2.90;;;1.20;;
51810;SDS011;52468;40.116;18.296;2023-02-01T13:08:43;2.87;;;1.80;;
51810;SDS011;52468;40.116;18.296;2023-02-01T13:13:56;4.07;;;1.63;;
51810;SDS011;52468;40.116;18.296;2023-02-01T13:16:40;1.88;;;1.20;;
51810;SDS011;52468;40.116;18.296;2023-02-01T13:21:50;2.17;;;1.30;;
51810;SDS011;52468;40.116;18.296;2023-02-01T13:24:27;2.93;;;1.93;;
51810;SDS011;52468;40.116;18.296;2023-02-01T13:27:10;4.60;;;3.47;;
51810;SDS011;52468;40.116;18.296;2023-02-01T13:29:48;4.67;;;2.00;;
51810;SDS011;52468;40.116;18.296;2023-02-01T13:32:33;3.53;;;2.40;;
51810;SDS011;52468;40.116;18.296;2023-02-01T13:37:53;4.00;;;2.40;;
51810;SDS011;52468;40.116;18.296;2023-02-01T13:40:40;9.17;;;6.27;;
51810;SDS011;52468;40.116;18.296;2023-02-01T13:43:33;3.40;;;2.07;;
51810;SDS011;52468;40.116;18.296;2023-02-01T13:46:04;2.60;;;1.53;;
51810;SDS011;52468;40.116;18.296;2023-02-01T13:48:38;3.53;;;2.40;;
51810;SDS011;52468;40.116;18.296;2023-02-01T13:51:12;7.23;;;2.63;;
51810;SDS011;52468;40.116;18.296;2023-02-01T13:53:45;2.57;;;1.83;;
51810;SDS011;52468;40.116;18.296;2023-02-01T13:56:16;1.97;;;1.37;;
51810;SDS011;52468;40.116;18.296;2023-02-01T13:58:47;3.27;;;1.57;;
51810;SDS011;52468;40.116;18.296;2023-02-01T14:03:56;2.83;;;2.00;;
51810;SDS011;52468;40.116;18.296;2023-02-01T14:19:23;2.93;;;1.30;;
51810;SDS011;52468;40.116;18.296;2023-02-01T14:21:56;2.50;;;1.43;;
51810;SDS011;52468;40.116;18.296;2023-02-01T14:24:32;3.83;;;1.40;;
51810;SDS011;52468;40.116;18.296;2023-02-01T14:27:16;8.47;;;1.40;;
51810;SDS011;52468;40.116;18.296;2023-02-01T14:29:51;2.03;;;1.30;;
51810;SDS011;52468;40.116;18.296;2023-02-01T14:32:26;2.33;;;1.30;;
51810;SDS011;52468;40.116;18.296;2023-02-01T14:35:01;4.50;;;1.90;;
51810;SDS011;52468;40.116;18.296;2023-02-01T14:37:34;2.88;;;1.33;;
51810;SDS011;52468;40.116;18.296;2023-02-01T14:55:59;4.87;;;1.90;;
51810;SDS011;52468;40.116;18.296;2023-02-01T15:04:02;3.17;;;2.77;;
51810;SDS011;52468;40.116;18.296;2023-02-01T15:09:19;4.30;;;2.20;;
51810;SDS011;52468;40.116;18.296;2023-02-01T15:12:18;2.00;;;1.47;;
51810;SDS011;52468;40.116;18.296;2023-02-01T15:15:16;6.30;;;2.50;;
51810;SDS011;52468;40.116;18.296;2023-02-01T15:17:51;4.88;;;1.55;;
51810;SDS011;52468;40.116;18.296;2023-02-01T15:20:24;6.93;;;2.27;;
51810;SDS011;52468;40.116;18.296;2023-02-01T15:23:00;2.87;;;1.80;;
51810;SDS011;52468;40.116;18.296;2023-02-01T15:25:34;2.00;;;1.53;;
51810;SDS011;52468;40.116;18.296;2023-02-01T15:28:04;3.40;;;1.50;;
51810;SDS011;52468;40.116;18.296;2023-02-01T15:30:36;2.88;;;1.85;;
51810;SDS011;52468;40.116;18.296;2023-02-01T15:33:14;5.70;;;2.70;;
51810;SDS011;52468;40.116;18.296;2023-02-01T15:35:50;3.87;;;2.80;;
51810;SDS011;52468;40.116;18.296;2023-02-01T15:38:36;6.20;;;3.00;;
51810;SDS011;52468;40.116;18.296;2023-02-01T15:43:44;3.90;;;1.63;;
51810;SDS011;52468;40.116;18.296;2023-02-01T15:46:34;2.07;;;1.73;;
51810;SDS011;52468;40.116;18.296;2023-02-01T15:49:11;4.37;;;1.90;;
51810;SDS011;52468;40.116;18.296;2023-02-01T15:51:44;4.07;;;3.13;;
51810;SDS011;52468;40.116;18.296;2023-02-01T15:54:22;5.70;;;4.30;;
51810;SDS011;52468;40.116;18.296;2023-02-01T15:57:00;69.50;;;48.33;;
51810;SDS011;52468;40.116;18.296;2023-02-01T15:59:31;68.13;;;38.73;;
51810;SDS011;52468;40.116;18.296;2023-02-01T16:02:22;30.57;;;19.50;;
51810;SDS011;52468;40.116;18.296;2023-02-01T16:04:56;20.90;;;14.73;;
51810;SDS011;52468;40.116;18.296;2023-02-01T16:07:27;22.53;;;13.17;;
51810;SDS011;52468;40.116;18.296;2023-02-01T16:10:01;18.90;;;11.90;;
51810;SDS011;52468;40.116;18.296;2023-02-01T16:12:50;14.30;;;10.57;;
51810;SDS011;52468;40.116;18.296;2023-02-01T16:15:22;18.57;;;11.43;;
51810;SDS011;52468;40.116;18.296;2023-02-01T16:17:50;15.37;;;10.10;;
51810;SDS011;52468;40.116;18.296;2023-02-01T16:20:19;17.23;;;10.23;;
51810;SDS011;52468;40.116;18.296;2023-02-01T16:22:47;30.00;;;19.20;;
51810;SDS011;52468;40.116;18.296;2023-02-01T16:25:15;136.17;;;89.63;;
51810;SDS011;52468;40.116;18.296;2023-02-01T16:27:43;37.07;;;26.27;;
51810;SDS011;52468;40.116;18.296;2023-02-01T16:30:11;19.37;;;11.93;;
51810;SDS011;52468;40.116;18.296;2023-02-01T16:32:39;10.30;;;7.63;;
51810;SDS011;52468;40.116;18.296;2023-02-01T16:35:13;12.23;;;9.00;;
51810;SDS011;52468;40.116;18.296;2023-02-01T16:37:48;17.57;;;13.53;;
51810;SDS011;52468;40.116;18.296;2023-02-01T16:40:16;29.37;;;18.63;;
51810;SDS011;52468;40.116;18.296;2023-02-01T16:42:45;12.27;;;7.93;;
51810;SDS011;52468;40.116;18.296;2023-02-01T16:45:15;9.47;;;7.10;;
51810;SDS011;52468;40.116;18.296;2023-02-01T16:47:45;18.73;;;12.40;;
51810;SDS011;52468;40.116;18.296;2023-02-01T16:50:20;23.60;;;15.90;;
51810;SDS011;52468;40.116;18.296;2023-02-01T16:52:50;39.90;;;27.77;;
51810;SDS011;52468;40.116;18.296;2023-02-01T16:55:20;82.53;;;54.33;;
51810;SDS011;52468;40.116;18.296;2023-02-01T16:57:49;69.20;;;47.00;;
51810;SDS011;52468;40.116;18.296;2023-02-01T17:00:17;47.00;;;29.47;;
51810;SDS011;52468;40.116;18.296;2023-02-01T17:02:52;45.23;;;29.03;;
51810;SDS011;52468;40.116;18.296;2023-02-01T17:05:20;47.27;;;28.17;;
51810;SDS011;52468;40.116;18.296;2023-02-01T17:07:49;53.37;;;30.57;;
51810;SDS011;52468;40.116;18.296;2023-02-01T17:10:21;50.90;;;32.87;;
51810;SDS011;52468;40.116;18.296;2023-02-01T17:13:00;38.40;;;24.17;;
51810;SDS011;52468;40.116;18.296;2023-02-01T17:15:31;38.13;;;23.27;;
51810;SDS011;52468;40.116;18.296;2023-02-01T17:18:01;38.70;;;23.70;;
51810;SDS011;52468;40.116;18.296;2023-02-01T17:20:30;46.00;;;29.23;;
51810;SDS011;52468;40.116;18.296;2023-02-01T17:22:59;34.70;;;19.70;;
51810;SDS011;52468;40.116;18.296;2023-02-01T17:25:27;35.27;;;18.77;;
51810;SDS011;52468;40.116;18.296;2023-02-01T17:27:56;33.23;;;21.20;;
51810;SDS011;52468;40.116;18.296;2023-02-01T17:30:23;25.87;;;18.13;;
51810;SDS011;52468;40.116;18.296;2023-02-01T17:32:51;34.63;;;22.07;;
51810;SDS011;52468;40.116;18.296;2023-02-01T17:35:22;32.63;;;22.23;;
51810;SDS011;52468;40.116;18.296;2023-02-01T17:37:52;42.50;;;23.27;;
51810;SDS011;52468;40.116;18.296;2023-02-01T17:40:21;33.20;;;25.20;;
51810;SDS011;52468;40.116;18.296;2023-02-01T17:42:49;32.87;;;20.47;;
51810;SDS011;52468;40.116;18.296;2023-02-01T17:45:32;33.90;;;19.87;;
51810;SDS011;52468;40.116;18.296;2023-02-01T17:48:05;31.10;;;19.47;;
51810;SDS011;52468;40.116;18.296;2023-02-01T17:50:35;30.83;;;19.07;;
51810;SDS011;52468;40.116;18.296;2023-02-01T17:53:04;26.70;;;19.23;;
51810;SDS011;52468;40.116;18.296;2023-02-01T17:55:36;21.03;;;14.93;;
51810;SDS011;52468;40.116;18.296;2023-02-01T17:58:07;23.70;;;15.97;;
51810;SDS011;52468;40.116;18.296;2023-02-01T18:00:40;24.77;;;17.17;;
51810;SDS011;52468;40.116;18.296;2023-02-01T18:03:27;27.03;;;18.27;;
51810;SDS011;52468;40.116;18.296;2023-02-01T18:05:56;23.93;;;15.87;;